Time;durP1;ratioP1;P1;durP2;ratioP2;P2;SDS_P1;SDS_P2;PMS_P1;PMS_P2;Temp;Humidity;BMP_temperature;BMP_pressure;BME280_temperature;BME280_humidity;BME280_pressure;Samples;Min_cycle;Max_cycle;Signal;HPM_P1;HPM_P2
2022/09/14 00:00:25;;;;;;;;;;;27.30;92.60;;;;;;5067073;28;19901;-64
2022/09/14 00:02:51;;;;;;;;;;;27.20;92.70;;;;;;5075382;28;19909;-66
2022/09/14 00:05:18;;;;;;;;;;;27.20;92.70;;;;;;5081317;28;19979;-65
2022/09/14 00:07:44;;;;;;;;;;;27.10;92.70;;;;;;5060439;28;19908;-65
2022/09/14 00:10:10;;;;;;;;;;;27.00;92.60;;;;;;5057387;28;20291;-65
2022/09/14 00:12:36;;;;;;;;;;;27.00;92.70;;;;;;5074350;28;19923;-64
2022/09/14 00:15:03;;;;;;;;;;;26.90;92.90;;;;;;5078532;28;19904;-66
2022/09/14 00:17:29;;;;;;;;;;;26.90;92.90;;;;;;5083781;28;19908;-64
2022/09/14 00:19:55;;;;;;;;;;;26.90;92.80;;;;;;5076571;28;19940;-66
2022/09/14 00:22:21;;;;;;;;;;;26.90;92.70;;;;;;5065243;28;20184;-65
2022/09/14 00:24:49;;;;;;;;;;;26.90;92.70;;;;;;5064680;28;19916;-66
2022/09/14 00:27:15;;;;;;;;;;;26.90;92.80;;;;;;5068416;28;19908;-67
2022/09/14 00:29:42;;;;;;;;;;;26.90;92.80;;;;;;5076165;28;19904;-65
2022/09/14 00:32:08;;;;;;;;;;;26.90;92.90;;;;;;5085238;28;19908;-63
2022/09/14 00:34:34;;;;;;;;;;;26.90;93.10;;;;;;5085132;28;19905;-65
2022/09/14 00:37:00;;;;;;;;;;;26.80;93.10;;;;;;5083911;28;19908;-66
2022/09/14 00:39:27;;;;;;;;;;;26.80;93.30;;;;;;5065296;28;19930;-65
2022/09/14 00:41:53;;;;;;;;;;;26.80;93.30;;;;;;5074138;28;19912;-64
2022/09/14 00:44:22;;;;;;;;;;;26.80;93.20;;;;;;5070320;28;19983;-60
2022/09/14 00:46:51;;;;;;;;;;;26.70;93.20;;;;;;5063609;28;19908;-61
2022/09/14 00:49:30;;;;;;;;;;;26.80;93.10;;;;;;5062259;28;19950;-60
2022/09/14 00:51:59;;;;;;;;;;;26.80;93.00;;;;;;5061601;28;19908;-61
2022/09/14 00:54:25;;;;;;;;;;;26.80;92.90;;;;;;5062315;28;19976;-63
2022/09/14 00:56:52;;;;;;;;;;;26.80;92.80;;;;;;5064685;28;19908;-61
2022/09/14 00:59:24;;;;;;;;;;;26.80;92.70;;;;;;5064176;28;20212;-61
2022/09/14 01:01:51;;;;;;;;;;;26.80;92.70;;;;;;5064672;28;19946;-61
2022/09/14 01:04:17;;;;;;;;;;;26.90;92.60;;;;;;5064277;28;19913;-60
2022/09/14 01:07:02;;;;;;;;;;;26.80;92.50;;;;;;5064649;28;19944;-60
2022/09/14 01:09:32;;;;;;;;;;;26.80;92.40;;;;;;5064414;28;19912;-61
2022/09/14 01:11:58;;;;;;;;;;;26.90;92.50;;;;;;5064525;28;19975;-62
2022/09/14 01:14:24;;;;;;;;;;;26.80;92.40;;;;;;5064450;28;19947;-61
2022/09/14 01:16:57;;;;;;;;;;;26.80;92.10;;;;;;5064676;28;19954;-62
2022/09/14 01:19:42;;;;;;;;;;;26.80;92.20;;;;;;5064207;28;19904;-61
2022/09/14 01:22:19;;;;;;;;;;;26.80;91.90;;;;;;5064585;28;20143;-60
2022/09/14 01:24:52;;;;;;;;;;;26.80;92.00;;;;;;5069304;28;20194;-57
2022/09/14 01:27:42;;;;;;;;;;;26.80;91.80;;;;;;5080354;28;19915;-55
2022/09/14 01:30:12;;;;;;;;;;;26.70;91.90;;;;;;5085855;28;19912;-58
2022/09/14 01:32:54;;;;;;;;;;;26.60;91.80;;;;;;5085608;28;19949;-53
2022/09/14 01:35:28;;;;;;;;;;;26.60;92.00;;;;;;5084164;28;19982;-55
2022/09/14 01:38:00;;;;;;;;;;;26.60;92.00;;;;;;5085225;28;19938;-53
2022/09/14 01:40:37;;;;;;;;;;;26.60;92.30;;;;;;5104039;28;20230;-59
2022/09/14 01:43:10;;;;;;;;;;;26.60;92.10;;;;;;5085978;28;19919;-56
2022/09/14 01:45:44;;;;;;;;;;;26.60;92.00;;;;;;5103855;28;19910;-55
2022/09/14 01:48:15;;;;;;;;;;;26.60;91.90;;;;;;5104149;28;20126;-54
2022/09/14 01:50:51;;;;;;;;;;;26.60;91.90;;;;;;5103914;28;20108;-57
2022/09/14 01:53:45;;;;;;;;;;;26.60;91.90;;;;;;5085483;28;19925;-55
2022/09/14 01:56:19;;;;;;;;;;;26.50;92.20;;;;;;5100133;28;19908;-53
2022/09/14 01:58:51;;;;;;;;;;;26.60;92.30;;;;;;5102846;28;19911;-56
2022/09/14 02:01:26;;;;;;;;;;;26.50;92.60;;;;;;5084715;28;19915;-53
2022/09/14 02:03:57;;;;;;;;;;;26.50;92.40;;;;;;5103456;28;19958;-56
2022/09/14 02:06:30;;;;;;;;;;;26.40;92.30;;;;;;5102354;28;19953;-56
2022/09/14 02:08:59;;;;;;;;;;;26.40;92.10;;;;;;5079429;28;19905;-55
2022/09/14 02:11:25;;;;;;;;;;;26.40;92.10;;;;;;5086698;28;19950;-54
2022/09/14 02:13:51;;;;;;;;;;;26.30;92.10;;;;;;5092063;28;19906;-56
2022/09/14 02:16:18;;;;;;;;;;;26.30;92.00;;;;;;5108036;28;19911;-57
2022/09/14 02:18:44;;;;;;;;;;;26.30;92.10;;;;;;5107867;28;19908;-56
2022/09/14 02:21:15;;;;;;;;;;;26.30;92.30;;;;;;5107894;28;19998;-54
2022/09/14 02:23:41;;;;;;;;;;;26.30;92.20;;;;;;5107238;28;19911;-54
2022/09/14 02:26:08;;;;;;;;;;;26.30;92.20;;;;;;5107879;28;19979;-56
2022/09/14 02:28:34;;;;;;;;;;;26.30;92.20;;;;;;5091735;28;19946;-55
2022/09/14 02:31:00;;;;;;;;;;;26.30;92.30;;;;;;5087257;28;20088;-52
2022/09/14 02:33:51;;;;;;;;;;;26.30;92.30;;;;;;5086976;28;19922;-57
2022/09/14 02:36:36;;;;;;;;;;;26.30;92.40;;;;;;5086978;28;20233;-57
2022/09/14 02:39:15;;;;;;;;;;;26.30;92.40;;;;;;5104729;28;19931;-54
2022/09/14 02:41:47;;;;;;;;;;;26.30;92.40;;;;;;5107202;28;19950;-56
2022/09/14 02:44:19;;;;;;;;;;;26.30;92.50;;;;;;5107189;28;19919;-55
2022/09/14 02:47:00;;;;;;;;;;;26.30;92.10;;;;;;5107319;28;19908;-55
2022/09/14 02:49:49;;;;;;;;;;;26.30;91.90;;;;;;5107509;28;19970;-60
2022/09/14 02:52:17;;;;;;;;;;;26.30;91.90;;;;;;5105464;28;19991;-60
2022/09/14 02:54:55;;;;;;;;;;;26.30;91.90;;;;;;5070538;28;19900;-60
2022/09/14 02:57:21;;;;;;;;;;;26.30;91.80;;;;;;5072678;28;20023;-60
2022/09/14 02:59:47;;;;;;;;;;;26.40;91.90;;;;;;5106685;28;19907;-61
2022/09/14 03:02:13;;;;;;;;;;;26.40;91.80;;;;;;5106997;28;19965;-61
2022/09/14 03:04:41;;;;;;;;;;;26.40;91.80;;;;;;5106712;28;19903;-60
2022/09/14 03:07:07;;;;;;;;;;;26.40;91.70;;;;;;5106163;28;20210;-61
2022/09/14 03:09:33;;;;;;;;;;;26.40;91.60;;;;;;5105221;28;20134;-60
2022/09/14 03:12:00;;;;;;;;;;;26.40;91.60;;;;;;5105200;28;19911;-60
2022/09/14 03:14:26;;;;;;;;;;;26.50;91.50;;;;;;5104986;28;19946;-61
2022/09/14 03:16:52;;;;;;;;;;;26.50;91.60;;;;;;5104932;28;19908;-61
2022/09/14 03:19:18;;;;;;;;;;;26.50;91.60;;;;;;5104700;28;19943;-61
2022/09/14 03:21:44;;;;;;;;;;;26.50;91.60;;;;;;5104583;28;19908;-61
2022/09/14 03:24:11;;;;;;;;;;;26.50;91.50;;;;;;5106071;28;19912;-60
2022/09/14 03:26:38;;;;;;;;;;;26.50;91.60;;;;;;5106052;28;20229;-61
2022/09/14 03:29:05;;;;;;;;;;;26.50;91.50;;;;;;5106395;28;19900;-60
2022/09/14 03:31:31;;;;;;;;;;;26.50;91.60;;;;;;5106496;28;19908;-61
2022/09/14 03:33:59;;;;;;;;;;;26.50;91.60;;;;;;5106115;28;19904;-61
2022/09/14 03:36:26;;;;;;;;;;;26.50;91.70;;;;;;5106341;28;19904;-60
2022/09/14 03:38:53;;;;;;;;;;;26.50;91.70;;;;;;5106091;28;19904;-61
2022/09/14 03:41:20;;;;;;;;;;;26.50;91.80;;;;;;5106167;28;19950;-60
2022/09/14 03:43:46;;;;;;;;;;;26.50;91.80;;;;;;5105884;28;19930;-61
2022/09/14 03:46:13;;;;;;;;;;;26.50;91.80;;;;;;5105986;28;20203;-61
2022/09/14 03:48:40;;;;;;;;;;;26.50;91.80;;;;;;5106002;28;19907;-64
2022/09/14 03:51:07;;;;;;;;;;;26.50;91.80;;;;;;5106025;28;20109;-60
2022/09/14 03:53:34;;;;;;;;;;;26.50;91.80;;;;;;5105892;28;19907;-60
2022/09/14 03:56:00;;;;;;;;;;;26.50;91.80;;;;;;5105997;28;19915;-63
2022/09/14 03:58:30;;;;;;;;;;;26.50;91.80;;;;;;5070920;28;19904;-60
2022/09/14 04:01:01;;;;;;;;;;;26.50;91.80;;;;;;5105669;28;20171;-58
2022/09/14 04:03:27;;;;;;;;;;;26.50;91.70;;;;;;5105521;28;19908;-59
2022/09/14 04:05:55;;;;;;;;;;;26.50;91.70;;;;;;5105619;28;20188;-61
2022/09/14 04:08:21;;;;;;;;;;;26.50;91.60;;;;;;5105451;28;20242;-60
2022/09/14 04:10:48;;;;;;;;;;;26.60;91.60;;;;;;5105538;28;19904;-60
2022/09/14 04:13:14;;;;;;;;;;;26.50;91.50;;;;;;5105181;28;19970;-61
2022/09/14 04:15:40;;;;;;;;;;;26.50;91.50;;;;;;5105466;28;20241;-61
2022/09/14 04:18:06;;;;;;;;;;;26.50;91.40;;;;;;5105275;28;19904;-60
2022/09/14 04:20:32;;;;;;;;;;;26.50;91.20;;;;;;5105273;28;19904;-60
2022/09/14 04:22:58;;;;;;;;;;;26.50;91.20;;;;;;5105300;28;20196;-60
2022/09/14 04:25:25;;;;;;;;;;;26.60;91.20;;;;;;5105331;28;19960;-61
2022/09/14 04:27:51;;;;;;;;;;;26.60;91.20;;;;;;5105591;28;20166;-60
2022/09/14 04:30:17;;;;;;;;;;;26.50;91.30;;;;;;5105383;28;19915;-61
2022/09/14 04:32:43;;;;;;;;;;;26.50;91.40;;;;;;5105110;28;19979;-61
2022/09/14 04:35:09;;;;;;;;;;;26.50;91.30;;;;;;5104979;28;19943;-61
2022/09/14 04:37:35;;;;;;;;;;;26.50;91.40;;;;;;5105426;28;20188;-61
2022/09/14 04:40:02;;;;;;;;;;;26.50;91.40;;;;;;5105023;28;20191;-62
2022/09/14 04:42:29;;;;;;;;;;;26.50;91.40;;;;;;5105221;28;20123;-60
2022/09/14 04:44:55;;;;;;;;;;;26.50;91.40;;;;;;5104768;28;20219;-61
2022/09/14 04:47:21;;;;;;;;;;;26.50;91.40;;;;;;5105119;28;20099;-61
2022/09/14 04:49:48;;;;;;;;;;;26.50;91.40;;;;;;5104966;28;19966;-61
2022/09/14 04:52:14;;;;;;;;;;;26.50;91.40;;;;;;5105059;28;20200;-61
2022/09/14 04:54:40;;;;;;;;;;;26.50;91.30;;;;;;5104808;28;19904;-60
2022/09/14 04:57:06;;;;;;;;;;;26.50;91.20;;;;;;5104961;28;19946;-61
2022/09/14 04:59:33;;;;;;;;;;;26.50;91.40;;;;;;5104674;28;19904;-61
2022/09/14 05:01:59;;;;;;;;;;;26.50;91.50;;;;;;5104830;28;19904;-60
2022/09/14 05:04:25;;;;;;;;;;;26.50;91.60;;;;;;5104676;28;19908;-61
2022/09/14 05:06:51;;;;;;;;;;;26.50;91.60;;;;;;5104633;28;19908;-60
2022/09/14 05:09:18;;;;;;;;;;;26.50;91.60;;;;;;5104571;28;19904;-60
2022/09/14 05:11:44;;;;;;;;;;;26.50;91.50;;;;;;5104814;28;19904;-61
2022/09/14 05:14:12;;;;;;;;;;;26.50;91.40;;;;;;5104643;28;19974;-60
2022/09/14 05:16:38;;;;;;;;;;;26.40;91.40;;;;;;5104842;28;19915;-62
2022/09/14 05:19:07;;;;;;;;;;;26.50;91.70;;;;;;5104112;28;20032;-61
2022/09/14 05:21:34;;;;;;;;;;;26.50;91.50;;;;;;5104556;28;19975;-60
2022/09/14 05:24:02;;;;;;;;;;;26.40;91.60;;;;;;5104050;28;20104;-60
2022/09/14 05:26:29;;;;;;;;;;;26.50;91.60;;;;;;5104832;28;19907;-61
2022/09/14 05:28:57;;;;;;;;;;;26.40;91.50;;;;;;5104177;28;19900;-66
2022/09/14 05:31:24;;;;;;;;;;;26.40;91.50;;;;;;5104456;28;19912;-61
2022/09/14 05:33:50;;;;;;;;;;;26.40;91.40;;;;;;5104174;28;19911;-61
2022/09/14 05:36:17;;;;;;;;;;;26.40;91.50;;;;;;5104402;28;20083;-61
2022/09/14 05:38:43;;;;;;;;;;;26.40;91.50;;;;;;5104280;28;20184;-61
2022/09/14 05:41:10;;;;;;;;;;;26.40;91.50;;;;;;5104258;28;19908;-60
2022/09/14 05:43:36;;;;;;;;;;;26.40;91.50;;;;;;5103970;28;19904;-61
2022/09/14 05:46:05;;;;;;;;;;;26.40;91.50;;;;;;5106831;28;19908;-61
2022/09/14 05:48:32;;;;;;;;;;;26.40;91.50;;;;;;5108304;28;19904;-60
2022/09/14 05:51:02;;;;;;;;;;;26.40;91.40;;;;;;5108288;28;20183;-60
2022/09/14 05:53:28;;;;;;;;;;;26.40;91.40;;;;;;5108138;28;19907;-61
2022/09/14 05:56:01;;;;;;;;;;;26.40;91.30;;;;;;5108214;28;20126;-62
2022/09/14 05:58:28;;;;;;;;;;;26.40;91.30;;;;;;5107920;28;19900;-60
2022/09/14 06:00:54;;;;;;;;;;;26.40;91.50;;;;;;5108125;28;20294;-60
2022/09/14 06:03:20;;;;;;;;;;;26.40;91.50;;;;;;5101839;28;19912;-59
2022/09/14 06:05:46;;;;;;;;;;;26.40;91.50;;;;;;5069619;28;19908;-61
2022/09/14 06:08:12;;;;;;;;;;;26.30;91.30;;;;;;5076048;28;20078;-58
2022/09/14 06:10:39;;;;;;;;;;;26.40;91.30;;;;;;5067472;28;19939;-58
2022/09/14 06:13:06;;;;;;;;;;;26.40;91.20;;;;;;5067585;28;19904;-58
2022/09/14 06:15:35;;;;;;;;;;;26.30;91.20;;;;;;5066976;28;19923;-58
2022/09/14 06:18:03;;;;;;;;;;;26.40;91.10;;;;;;5067362;28;19942;-59
2022/09/14 06:20:29;;;;;;;;;;;26.40;91.00;;;;;;5067090;28;19947;-59
2022/09/14 06:22:55;;;;;;;;;;;26.30;90.90;;;;;;5066943;28;20139;-59
2022/09/14 06:25:22;;;;;;;;;;;26.30;90.90;;;;;;5067495;28;19900;-59
2022/09/14 06:27:52;;;;;;;;;;;26.30;90.90;;;;;;5067456;28;19939;-60
2022/09/14 06:30:19;;;;;;;;;;;26.30;90.90;;;;;;5078029;28;19904;-59
2022/09/14 06:32:45;;;;;;;;;;;26.30;90.90;;;;;;5067077;28;19909;-58
2022/09/14 06:35:11;;;;;;;;;;;26.30;90.90;;;;;;5078289;28;19939;-59
2022/09/14 06:37:37;;;;;;;;;;;26.30;90.90;;;;;;5066777;28;20183;-59
2022/09/14 06:40:04;;;;;;;;;;;26.30;90.80;;;;;;5066938;28;20185;-59
2022/09/14 06:42:30;;;;;;;;;;;26.30;90.80;;;;;;5067336;28;19908;-59
2022/09/14 06:44:56;;;;;;;;;;;26.30;90.70;;;;;;5066195;28;19916;-60
2022/09/14 06:47:22;;;;;;;;;;;26.30;90.70;;;;;;5067170;28;19908;-59
2022/09/14 06:49:49;;;;;;;;;;;26.30;90.80;;;;;;5066660;28;20193;-60
2022/09/14 06:52:16;;;;;;;;;;;26.30;90.80;;;;;;5067006;28;20010;-58
2022/09/14 06:54:42;;;;;;;;;;;26.30;90.80;;;;;;5066764;28;19904;-62
2022/09/14 06:57:09;;;;;;;;;;;26.30;90.80;;;;;;5066548;28;19908;-60
2022/09/14 06:59:35;;;;;;;;;;;26.30;90.90;;;;;;5066308;28;19908;-59
2022/09/14 07:02:01;;;;;;;;;;;26.30;90.80;;;;;;5066825;28;20188;-59
2022/09/14 07:04:27;;;;;;;;;;;26.20;90.80;;;;;;5066432;28;20211;-59
2022/09/14 07:06:53;;;;;;;;;;;26.20;90.60;;;;;;5066686;28;19983;-60
2022/09/14 07:09:20;;;;;;;;;;;26.20;90.60;;;;;;5071166;28;20176;-58
2022/09/14 07:11:46;;;;;;;;;;;26.30;90.70;;;;;;5073173;28;20117;-59
2022/09/14 07:14:12;;;;;;;;;;;26.20;90.70;;;;;;5065846;28;19901;-59
2022/09/14 07:16:39;;;;;;;;;;;26.20;90.80;;;;;;5066388;28;19916;-59
2022/09/14 07:19:07;;;;;;;;;;;26.30;90.80;;;;;;5065833;28;19901;-60
2022/09/14 07:21:33;;;;;;;;;;;26.30;90.70;;;;;;5065551;28;19905;-61
2022/09/14 07:24:00;;;;;;;;;;;26.20;90.80;;;;;;5064666;28;20136;-59
2022/09/14 07:26:30;;;;;;;;;;;26.30;90.90;;;;;;5066942;28;19954;-59
2022/09/14 07:28:57;;;;;;;;;;;26.20;90.90;;;;;;5073938;28;19912;-61
2022/09/14 07:31:32;;;;;;;;;;;26.20;91.00;;;;;;5065054;28;19904;-59
2022/09/14 07:34:00;;;;;;;;;;;26.20;90.90;;;;;;5064187;28;19992;-59
2022/09/14 07:36:27;;;;;;;;;;;26.20;90.80;;;;;;5064285;28;20196;-60
2022/09/14 07:38:53;;;;;;;;;;;26.20;90.80;;;;;;5065060;28;19904;-59
2022/09/14 07:41:20;;;;;;;;;;;26.20;90.70;;;;;;5066030;28;19909;-59
2022/09/14 07:43:50;;;;;;;;;;;26.20;90.80;;;;;;5064681;28;19916;-59
2022/09/14 07:46:17;;;;;;;;;;;26.20;90.80;;;;;;5063986;28;19979;-63
2022/09/14 07:48:43;;;;;;;;;;;26.20;90.80;;;;;;5065686;28;20132;-59
2022/09/14 07:51:10;;;;;;;;;;;26.20;90.90;;;;;;5065612;28;19908;-60
2022/09/14 07:53:38;;;;;;;;;;;26.20;91.00;;;;;;5065570;28;19904;-59
2022/09/14 07:56:04;;;;;;;;;;;26.20;91.00;;;;;;5065545;28;19997;-60
2022/09/14 07:58:31;;;;;;;;;;;26.20;91.00;;;;;;5065375;28;19950;-59
2022/09/14 08:01:01;;;;;;;;;;;26.20;91.00;;;;;;5065293;28;19975;-59
2022/09/14 08:03:28;;;;;;;;;;;26.10;90.90;;;;;;5065178;28;19909;-60
2022/09/14 08:06:00;;;;;;;;;;;26.20;90.90;;;;;;5065180;28;20100;-60
2022/09/14 08:08:30;;;;;;;;;;;26.10;90.90;;;;;;5064413;28;19908;-59
2022/09/14 08:11:07;;;;;;;;;;;26.10;90.90;;;;;;5065400;28;19909;-59
2022/09/14 08:13:34;;;;;;;;;;;26.10;90.80;;;;;;5065078;28;19936;-59
2022/09/14 08:16:00;;;;;;;;;;;26.10;90.70;;;;;;5064941;28;20240;-59
2022/09/14 08:18:28;;;;;;;;;;;26.10;90.80;;;;;;5065050;28;19908;-58
2022/09/14 08:20:54;;;;;;;;;;;26.10;90.80;;;;;;5064861;28;20247;-62
2022/09/14 08:23:20;;;;;;;;;;;26.10;90.80;;;;;;5064575;28;20263;-59
2022/09/14 08:25:46;;;;;;;;;;;26.10;90.90;;;;;;5065241;28;19944;-59
2022/09/14 08:28:12;;;;;;;;;;;26.10;90.70;;;;;;5064976;28;19904;-59
2022/09/14 08:30:39;;;;;;;;;;;26.10;90.80;;;;;;5064436;28;19908;-59
2022/09/14 08:33:05;;;;;;;;;;;26.10;90.80;;;;;;5064809;28;19904;-59
2022/09/14 08:35:31;;;;;;;;;;;26.10;90.90;;;;;;5064845;28;19948;-59
2022/09/14 08:37:57;;;;;;;;;;;26.10;90.90;;;;;;5064786;28;19905;-60
2022/09/14 08:40:24;;;;;;;;;;;26.10;90.90;;;;;;5064897;28;19911;-59
2022/09/14 08:43:02;;;;;;;;;;;26.10;90.90;;;;;;5065139;28;20184;-59
2022/09/14 08:45:28;;;;;;;;;;;26.10;90.80;;;;;;5064009;28;20252;-59
2022/09/14 08:47:56;;;;;;;;;;;26.10;90.80;;;;;;5064904;28;19908;-60
2022/09/14 08:50:23;;;;;;;;;;;26.10;90.80;;;;;;5064540;28;20128;-59
2022/09/14 08:52:53;;;;;;;;;;;26.10;90.80;;;;;;5064988;28;19940;-59
2022/09/14 08:55:25;;;;;;;;;;;26.10;90.70;;;;;;5064306;28;19947;-60
2022/09/14 08:57:54;;;;;;;;;;;26.00;90.70;;;;;;5064891;28;19909;-61
2022/09/14 09:00:23;;;;;;;;;;;26.00;90.70;;;;;;5064117;28;19905;-60
2022/09/14 09:02:49;;;;;;;;;;;26.00;90.60;;;;;;5064686;28;19920;-60
2022/09/14 09:05:15;;;;;;;;;;;26.00;90.60;;;;;;5064878;28;19909;-60
2022/09/14 09:07:52;;;;;;;;;;;26.00;90.60;;;;;;5084433;28;19909;-60
2022/09/14 09:10:18;;;;;;;;;;;26.00;90.60;;;;;;5084250;28;20184;-58
2022/09/14 09:12:47;;;;;;;;;;;26.00;90.70;;;;;;5083986;28;19915;-59
2022/09/14 09:15:17;;;;;;;;;;;26.00;90.70;;;;;;5083519;28;19965;-60
2022/09/14 09:17:45;;;;;;;;;;;26.00;90.80;;;;;;5084693;28;19977;-60
2022/09/14 09:20:14;;;;;;;;;;;25.90;90.80;;;;;;5071012;28;19904;-59
2022/09/14 09:22:42;;;;;;;;;;;26.00;90.90;;;;;;5064198;28;19954;-60
2022/09/14 09:25:34;;;;;;;;;;;25.90;90.90;;;;;;5064469;28;19940;-59
2022/09/14 09:28:01;;;;;;;;;;;25.90;91.00;;;;;;5061016;28;19972;-59
2022/09/14 09:30:28;;;;;;;;;;;25.90;91.10;;;;;;5063732;28;19912;-59
2022/09/14 09:32:55;;;;;;;;;;;25.90;91.30;;;;;;5064608;28;19910;-60
2022/09/14 09:35:22;;;;;;;;;;;25.90;91.40;;;;;;5070074;28;19900;-60
2022/09/14 09:37:48;;;;;;;;;;;25.90;91.40;;;;;;5084629;28;19947;-61
2022/09/14 09:40:34;;;;;;;;;;;25.90;91.40;;;;;;5084126;28;20081;-60
2022/09/14 09:43:11;;;;;;;;;;;25.90;91.40;;;;;;5083536;28;19908;-61
2022/09/14 09:45:57;;;;;;;;;;;25.80;91.30;;;;;;5083618;28;19946;-60
2022/09/14 09:48:26;;;;;;;;;;;25.80;91.40;;;;;;5083576;28;20096;-59
2022/09/14 09:51:03;;;;;;;;;;;25.80;91.40;;;;;;5079720;28;19923;-61
2022/09/14 09:53:30;;;;;;;;;;;25.80;91.40;;;;;;5063834;28;19905;-61
2022/09/14 09:55:56;;;;;;;;;;;25.80;91.40;;;;;;5063897;28;19927;-60
2022/09/14 09:58:37;;;;;;;;;;;25.80;91.30;;;;;;5063409;28;19905;-60
2022/09/14 10:01:16;;;;;;;;;;;25.80;91.40;;;;;;5063630;28;19909;-60
2022/09/14 10:03:50;;;;;;;;;;;25.80;91.40;;;;;;5063453;28;20196;-62
2022/09/14 10:06:16;;;;;;;;;;;25.80;91.50;;;;;;5063828;28;19908;-61
2022/09/14 10:08:43;;;;;;;;;;;25.80;91.50;;;;;;5063965;28;19905;-61
2022/09/14 10:11:47;;;;;;;;;;;25.80;91.50;;;;;;5063488;28;19908;-60
2022/09/14 10:14:30;;;;;;;;;;;25.80;91.50;;;;;;4982756;28;19941;-60
2022/09/14 10:17:06;;;;;;;;;;;25.80;91.60;;;;;;4983076;28;19941;-60
2022/09/14 10:19:33;;;;;;;;;;;25.70;91.70;;;;;;5039750;28;19900;-60
2022/09/14 10:22:03;;;;;;;;;;;25.70;91.60;;;;;;5083863;28;19979;-63
2022/09/14 10:24:29;;;;;;;;;;;25.80;91.60;;;;;;5065967;28;19912;-61
2022/09/14 10:26:55;;;;;;;;;;;25.70;91.60;;;;;;5083757;28;19909;-61
2022/09/14 10:29:21;;;;;;;;;;;25.70;91.70;;;;;;5083151;28;19906;-60
2022/09/14 10:31:49;;;;;;;;;;;25.80;91.80;;;;;;5085790;28;19932;-60
2022/09/14 10:34:18;;;;;;;;;;;25.70;91.70;;;;;;5087086;28;20103;-60
2022/09/14 10:36:46;;;;;;;;;;;25.70;91.80;;;;;;5087442;28;19908;-62
2022/09/14 10:39:18;;;;;;;;;;;25.80;91.80;;;;;;5086805;28;19904;-61
2022/09/14 10:42:00;;;;;;;;;;;25.70;91.80;;;;;;5078012;28;19909;-61
2022/09/14 10:44:42;;;;;;;;;;;25.70;91.80;;;;;;5086583;28;19943;-61
2022/09/14 10:47:08;;;;;;;;;;;25.70;91.80;;;;;;5087093;28;19927;-60
2022/09/14 10:49:46;;;;;;;;;;;25.80;91.90;;;;;;5079020;28;19959;-61
2022/09/14 10:52:21;;;;;;;;;;;25.70;91.90;;;;;;5067104;28;19936;-60
2022/09/14 10:54:55;;;;;;;;;;;25.80;92.00;;;;;;5066916;28;19950;-61
2022/09/14 10:57:25;;;;;;;;;;;25.70;91.90;;;;;;5067174;28;19904;-60
2022/09/14 10:59:53;;;;;;;;;;;25.70;92.00;;;;;;5066666;28;19908;-60
2022/09/14 11:02:45;;;;;;;;;;;25.70;92.00;;;;;;5067254;28;19988;-60
2022/09/14 11:05:11;;;;;;;;;;;25.80;92.00;;;;;;5066758;28;19912;-60
2022/09/14 11:08:04;;;;;;;;;;;25.80;92.00;;;;;;5067111;28;19909;-60
2022/09/14 11:10:43;;;;;;;;;;;25.80;92.00;;;;;;5069200;28;20081;-59
2022/09/14 11:13:29;;;;;;;;;;;25.80;92.00;;;;;;5065991;28;20073;-59
2022/09/14 11:16:08;;;;;;;;;;;25.80;92.00;;;;;;5073087;28;19909;-59
2022/09/14 11:18:34;;;;;;;;;;;25.80;92.10;;;;;;5084520;28;19909;-59
2022/09/14 11:21:15;;;;;;;;;;;25.80;92.10;;;;;;5086375;28;19915;-61
2022/09/14 11:23:55;;;;;;;;;;;25.90;92.10;;;;;;5086067;28;19912;-61
2022/09/14 11:26:30;;;;;;;;;;;25.90;92.20;;;;;;5086250;28;19940;-60
2022/09/14 11:29:14;;;;;;;;;;;25.90;92.30;;;;;;5085498;28;19926;-58
2022/09/14 11:31:48;;;;;;;;;;;25.90;92.10;;;;;;5072349;28;19909;-59
2022/09/14 11:34:14;;;;;;;;;;;25.90;92.10;;;;;;5066160;28;20074;-60
2022/09/14 11:36:43;;;;;;;;;;;25.90;92.10;;;;;;5065895;28;19912;-60
2022/09/14 11:39:13;;;;;;;;;;;25.90;92.00;;;;;;5065831;28;19909;-59
2022/09/14 11:41:43;;;;;;;;;;;25.90;92.00;;;;;;5047841;28;19942;-59
2022/09/14 11:44:09;;;;;;;;;;;26.00;92.20;;;;;;5065574;28;19959;-62
2022/09/14 11:46:45;;;;;;;;;;;26.00;92.20;;;;;;5065736;28;19909;-59
2022/09/14 11:49:14;;;;;;;;;;;26.00;92.30;;;;;;5065509;28;19904;-60
2022/09/14 11:51:46;;;;;;;;;;;26.00;92.30;;;;;;5079722;28;19908;-59
2022/09/14 11:54:15;;;;;;;;;;;26.00;92.30;;;;;;5085575;28;19904;-60
2022/09/14 11:56:42;;;;;;;;;;;26.10;92.30;;;;;;5085868;28;20238;-60
2022/09/14 11:59:28;;;;;;;;;;;26.10;92.40;;;;;;5085116;28;19900;-61
2022/09/14 12:01:55;;;;;;;;;;;26.10;92.40;;;;;;5067677;28;19908;-61
2022/09/14 12:04:21;;;;;;;;;;;26.10;92.40;;;;;;5085373;28;19912;-60
2022/09/14 12:06:52;;;;;;;;;;;26.10;92.30;;;;;;5085423;28;19951;-62
2022/09/14 12:09:23;;;;;;;;;;;26.10;92.20;;;;;;5085167;28;20105;-61
2022/09/14 12:11:50;;;;;;;;;;;26.20;92.20;;;;;;5085060;28;19975;-59
2022/09/14 12:14:22;;;;;;;;;;;26.20;92.10;;;;;;5085034;28;19904;-60
2022/09/14 12:17:07;;;;;;;;;;;26.20;92.10;;;;;;5085420;28;19914;-61
2022/09/14 12:19:33;;;;;;;;;;;26.20;92.10;;;;;;5085097;28;19904;-61
2022/09/14 12:22:19;;;;;;;;;;;26.30;92.20;;;;;;5084958;28;19939;-60
2022/09/14 12:24:56;;;;;;;;;;;26.30;92.20;;;;;;5084590;28;19912;-59
2022/09/14 12:27:22;;;;;;;;;;;26.30;92.20;;;;;;5085144;28;19908;-59
2022/09/14 12:29:48;;;;;;;;;;;26.30;92.20;;;;;;5085026;28;20188;-59
2022/09/14 12:32:38;;;;;;;;;;;26.40;92.30;;;;;;5085177;28;19905;-59
2022/09/14 12:35:22;;;;;;;;;;;26.40;92.40;;;;;;5064783;28;19904;-59
2022/09/14 12:37:49;;;;;;;;;;;26.40;92.40;;;;;;5065315;28;19943;-59
2022/09/14 12:40:27;;;;;;;;;;;26.40;92.40;;;;;;5064624;28;19947;-60
2022/09/14 12:42:53;;;;;;;;;;;26.40;92.40;;;;;;5064816;28;19916;-60
2022/09/14 12:45:38;;;;;;;;;;;26.40;92.50;;;;;;5064719;28;19916;-59
2022/09/14 12:48:06;;;;;;;;;;;26.50;92.50;;;;;;5064473;28;19953;-59
2022/09/14 12:50:33;;;;;;;;;;;26.50;92.50;;;;;;5064655;28;19908;-59
2022/09/14 12:53:09;;;;;;;;;;;26.50;92.60;;;;;;5064428;28;19905;-60
2022/09/14 12:55:35;;;;;;;;;;;26.50;92.50;;;;;;5063978;28;19936;-59
2022/09/14 12:58:09;;;;;;;;;;;26.60;92.60;;;;;;5064077;28;19911;-58
2022/09/14 13:00:46;;;;;;;;;;;26.60;92.70;;;;;;5064076;28;19905;-58
2022/09/14 13:03:13;;;;;;;;;;;26.60;92.70;;;;;;5064131;28;19936;-58
2022/09/14 13:05:41;;;;;;;;;;;26.60;92.80;;;;;;5064259;28;19947;-58
2022/09/14 13:08:09;;;;;;;;;;;26.60;93.00;;;;;;5064303;28;19913;-60
2022/09/14 13:10:37;;;;;;;;;;;26.70;92.90;;;;;;5064200;28;19938;-59
2022/09/14 13:13:13;;;;;;;;;;;26.70;93.00;;;;;;5063762;28;19905;-56
2022/09/14 13:15:53;;;;;;;;;;;26.70;93.00;;;;;;5064269;28;19976;-59
2022/09/14 13:18:19;;;;;;;;;;;26.70;92.90;;;;;;5064063;28;19912;-59
2022/09/14 13:20:49;;;;;;;;;;;26.80;93.10;;;;;;5064270;28;19912;-59
2022/09/14 13:23:38;;;;;;;;;;;26.80;93.20;;;;;;5063856;28;19913;-61
2022/09/14 13:26:09;;;;;;;;;;;26.80;93.10;;;;;;5053520;28;19908;-61
2022/09/14 13:28:35;;;;;;;;;;;26.80;93.30;;;;;;5064095;28;19904;-59
2022/09/14 13:31:01;;;;;;;;;;;26.80;93.20;;;;;;5064094;28;20061;-60
2022/09/14 13:33:28;;;;;;;;;;;26.80;93.20;;;;;;5046240;28;19972;-60
2022/09/14 13:36:02;;;;;;;;;;;26.80;93.20;;;;;;5063989;28;20081;-61
2022/09/14 13:38:33;;;;;;;;;;;26.90;93.10;;;;;;5064062;28;19911;-60
2022/09/14 13:41:04;;;;;;;;;;;26.90;93.20;;;;;;5063678;28;19908;-61
2022/09/14 13:43:31;;;;;;;;;;;26.90;93.40;;;;;;5063181;28;19932;-61
2022/09/14 13:45:57;;;;;;;;;;;26.90;93.30;;;;;;5063218;28;20189;-61
2022/09/14 13:48:24;;;;;;;;;;;26.90;93.30;;;;;;5062485;28;20207;-60
2022/09/14 13:50:50;;;;;;;;;;;26.90;93.30;;;;;;5063194;28;19947;-61
2022/09/14 13:53:39;;;;;;;;;;;26.90;93.30;;;;;;5063982;28;20239;-61
2022/09/14 13:56:25;;;;;;;;;;;26.90;93.40;;;;;;5063472;28;20096;-60
2022/09/14 13:59:10;;;;;;;;;;;26.90;93.30;;;;;;5065283;28;19972;-61
2022/09/14 14:02:02;;;;;;;;;;;26.90;93.40;;;;;;5076009;28;19909;-59
2022/09/14 14:04:34;;;;;;;;;;;26.90;93.70;;;;;;5067771;28;19915;-57
2022/09/14 14:07:14;;;;;;;;;;;26.90;93.80;;;;;;5069548;28;19912;-61
2022/09/14 14:09:44;;;;;;;;;;;27.00;93.90;;;;;;5067438;28;20256;-59
2022/09/14 14:12:11;;;;;;;;;;;27.00;93.90;;;;;;5067063;28;19992;-56
2022/09/14 14:14:37;;;;;;;;;;;27.00;94.00;;;;;;5067373;28;20262;-56
2022/09/14 14:17:20;;;;;;;;;;;27.00;94.10;;;;;;5067909;28;19905;-57
2022/09/14 14:19:46;;;;;;;;;;;27.00;94.20;;;;;;5067291;28;19909;-56
2022/09/14 14:22:12;;;;;;;;;;;27.10;94.30;;;;;;5067631;28;19908;-57
2022/09/14 14:24:39;;;;;;;;;;;27.10;94.10;;;;;;5066932;28;19913;-53
2022/09/14 14:27:05;;;;;;;;;;;27.20;94.10;;;;;;5067155;28;19936;-60
2022/09/14 14:29:31;;;;;;;;;;;27.20;93.40;;;;;;5067223;28;19959;-55
2022/09/14 14:31:58;;;;;;;;;;;27.20;93.00;;;;;;5067234;28;19908;-59